Main page
METAR-TAF:

METAR-TAF

Airports :

Aviano, Italy

Aviano Air Base

latitude: 46-02N, longitude: 012-36E, elevation: 128 m

Current weather observation

The report was made 2 hours and 44 minutes ago, at 19:55 UTC
Wind 2 kt from the East/Northeast
Temperature 22°C
Humidity 78%
Pressure 1016 hPa
Visibility 10 km or more
Scattered clouds at a height of 10000 ft

METAR: LIPA 231955Z 06002KT 9999 SCT100 22/18 Q1016 RMK SCT VIS MIN 9999 WIND THR05 06001KT WIND THR23 04003KT A3002 BLU

Time: 00:39 (22:39 UTC)

Forecast

The report was made 2 hours and 39 minutes ago, at 20:00 UTC
Forecast valid from 23 at 21 UTC to 24 at 06 UTC
Wind 5 kt from the Southeast
Visibility 10 km or more
Scattered clouds at a height of 8000 ft
Probability 30% :
Temporary
from 23 at 21 UTC to 24 at 02 UTC
Visibility: 4000 m
Few clouds at a height of 3000 ft, Cumulonimbus.
Scattered clouds at a height of 5000 ft
thunderstorm, rain

TAF: LIPA 232000Z 2321/2406 13005KT 9999 SCT080 PROB30 TEMPO 2321/2402 4000 TSRA FEW030CB SCT050

Weather observations and forecasts of more than 4000 airports (METAR and TAF reports).

The available stations are represented by yellow and red dots on the map.

Hover mouse over dot to see the name of the station.

Then click to see weather observations and forecasts.

To change the map : click on the green buttons with a black cross to zoom in, on the green button with a dash to zoom out, or on the green arrows for adjacent maps.


METAR-TAF: